createdAt,value
2018-11-23T00:01:04.403Z,56.10
2018-11-23T00:03:32.517Z,54.00
2018-11-23T00:06:00.646Z,52.13
2018-11-23T00:08:28.735Z,51.47
2018-11-23T00:10:56.867Z,51.53
2018-11-23T00:13:25.026Z,55.33
2018-11-23T00:15:53.259Z,44.13
2018-11-23T00:18:21.392Z,51.53
2018-11-23T00:20:49.488Z,47.97
2018-11-23T00:23:17.647Z,48.13
2018-11-23T00:25:45.741Z,48.80
2018-11-23T00:28:13.883Z,48.07
2018-11-23T00:30:41.987Z,50.07
2018-11-23T00:33:10.186Z,53.93
2018-11-23T00:35:38.350Z,47.57
2018-11-23T00:38:06.504Z,54.67
2018-11-23T00:40:34.646Z,52.77
2018-11-23T00:43:02.734Z,48.97
2018-11-23T00:45:31.031Z,46.30
2018-11-23T00:47:59.759Z,52.63
2018-11-23T00:50:27.940Z,48.47
2018-11-23T00:52:57.068Z,50.00
2018-11-23T00:55:26.047Z,53.50
2018-11-23T00:57:54.385Z,49.13
2018-11-23T01:00:30.338Z,46.53
2018-11-23T01:02:59.063Z,57.13
2018-11-23T01:05:27.194Z,55.80
2018-11-23T01:07:55.362Z,53.67
2018-11-23T01:10:24.490Z,56.33
2018-11-23T01:12:53.577Z,49.77
2018-11-23T01:15:21.759Z,48.90
2018-11-23T01:17:49.896Z,54.53
2018-11-23T01:20:21.124Z,56.90
2018-11-23T01:22:49.593Z,53.90
2018-11-23T01:25:18.911Z,53.77
2018-11-23T01:27:48.038Z,55.40
2018-11-23T01:30:18.897Z,57.67
2018-11-23T01:32:48.251Z,54.53
2018-11-23T01:35:16.426Z,53.17
2018-11-23T01:37:44.576Z,53.67
2018-11-23T01:40:14.501Z,54.10
2018-11-23T01:42:42.605Z,55.43
2018-11-23T01:45:11.152Z,57.60
2018-11-23T01:47:39.295Z,54.13
2018-11-23T01:50:11.433Z,51.97
2018-11-23T01:52:39.575Z,54.07
2018-11-23T01:55:08.337Z,57.90
2018-11-23T01:57:36.949Z,60.20
2018-11-23T02:00:05.242Z,62.20
2018-11-23T02:02:33.543Z,60.10
2018-11-23T02:05:01.696Z,59.60
2018-11-23T02:07:30.676Z,57.77
2018-11-23T02:09:58.781Z,56.20
2018-11-23T02:12:26.904Z,54.77
2018-11-23T02:14:55.107Z,55.83
2018-11-23T02:17:23.981Z,62.23
2018-11-23T02:19:53.006Z,62.67
2018-11-23T02:22:24.676Z,60.30
2018-11-23T02:24:52.938Z,60.50
2018-11-23T02:27:21.435Z,58.07
2018-11-23T02:29:49.517Z,55.53
2018-11-23T02:32:17.641Z,66.27
2018-11-23T02:34:45.739Z,62.07
2018-11-23T02:37:13.940Z,65.43
2018-11-23T02:39:42.115Z,60.97
2018-11-23T02:42:10.225Z,72.83
2018-11-23T02:44:38.345Z,63.43
2018-11-23T02:47:06.500Z,59.63
2018-11-23T02:49:34.756Z,67.90
2018-11-23T02:52:02.930Z,67.57
2018-11-23T02:54:31.020Z,60.97
2018-11-23T02:56:59.131Z,62.47
2018-11-23T02:59:27.268Z,62.20
2018-11-23T03:01:55.375Z,58.60
2018-11-23T03:04:23.526Z,65.60
2018-11-23T03:06:51.729Z,62.77
2018-11-23T03:09:19.895Z,68.67
2018-11-23T03:11:48.016Z,65.53
2018-11-23T03:14:16.142Z,62.13
2018-11-23T03:16:44.221Z,56.47
2018-11-23T03:19:12.348Z,59.07
2018-11-23T03:21:40.446Z,59.30
2018-11-23T03:24:08.560Z,63.57
2018-11-23T03:26:36.667Z,63.37
2018-11-23T03:29:04.963Z,67.60
2018-11-23T03:31:33.092Z,57.77
2018-11-23T03:34:01.240Z,62.87
2018-11-23T03:36:29.380Z,67.67
2018-11-23T03:38:57.480Z,60.93
2018-11-23T03:41:25.574Z,61.07
2018-11-23T03:43:53.656Z,58.83
2018-11-23T03:46:21.793Z,64.30
2018-11-23T03:48:49.908Z,58.70
2018-11-23T03:51:18.019Z,54.37
2018-11-23T03:53:46.132Z,57.37
2018-11-23T03:56:14.252Z,64.07
2018-11-23T03:58:42.365Z,60.63
2018-11-23T04:01:10.462Z,64.97
2018-11-23T04:03:38.602Z,64.40
2018-11-23T04:06:06.736Z,60.80
2018-11-23T04:08:34.874Z,62.90
2018-11-23T04:11:03.018Z,60.50
2018-11-23T04:13:31.278Z,58.53
2018-11-23T04:15:59.376Z,61.50
2018-11-23T04:18:27.519Z,55.67
2018-11-23T04:21:01.617Z,59.67
2018-11-23T04:23:31.003Z,61.33
2018-11-23T04:25:59.212Z,64.70
2018-11-23T04:28:27.430Z,64.63
2018-11-23T04:30:55.839Z,67.33
2018-11-23T04:33:24.530Z,60.33
2018-11-23T04:35:52.814Z,65.47
2018-11-23T04:38:20.984Z,54.87
2018-11-23T04:40:49.243Z,63.87
2018-11-23T04:43:17.506Z,62.63
2018-11-23T04:45:45.711Z,64.93
2018-11-23T04:48:13.926Z,59.63
2018-11-23T04:50:42.160Z,58.47
2018-11-23T04:53:10.365Z,57.13
2018-11-23T04:55:38.575Z,63.10
2018-11-23T04:58:06.796Z,62.67
2018-11-23T05:00:35.108Z,60.13
2018-11-23T05:03:03.269Z,61.23
2018-11-23T05:05:31.468Z,60.97
2018-11-23T05:07:59.676Z,54.70
2018-11-23T05:10:27.927Z,61.27
2018-11-23T05:12:56.152Z,60.00
2018-11-23T05:15:24.375Z,61.50
2018-11-23T05:17:52.562Z,65.07
2018-11-23T05:20:20.800Z,64.33
2018-11-23T05:22:49.014Z,62.70
2018-11-23T05:25:18.209Z,61.83
2018-11-23T05:27:46.419Z,68.40
2018-11-23T05:30:17.164Z,64.17
2018-11-23T05:32:45.313Z,63.50
2018-11-23T05:35:14.591Z,68.73
2018-11-23T05:37:42.940Z,73.87
2018-11-23T05:40:12.522Z,73.33
2018-11-23T05:42:40.727Z,63.00
2018-11-23T05:45:10.034Z,68.40
2018-11-23T05:47:38.270Z,67.07
2018-11-23T05:50:07.987Z,67.43
2018-11-23T05:52:36.289Z,68.43
2018-11-23T05:55:04.632Z,67.83
2018-11-23T05:57:33.013Z,70.93
2018-11-23T06:00:01.454Z,70.93
2018-11-23T06:02:29.765Z,73.67
2018-11-23T06:04:58.473Z,69.90
2018-11-23T06:07:26.652Z,72.33
2018-11-23T06:09:54.896Z,74.67
2018-11-23T06:12:23.084Z,72.97
2018-11-23T06:14:51.317Z,76.43
2018-11-23T06:17:19.717Z,78.50
2018-11-23T06:19:47.905Z,79.70
2018-11-23T06:22:16.133Z,81.73
2018-11-23T06:24:44.291Z,83.43
2018-11-23T06:27:12.494Z,83.40
2018-11-23T06:29:40.675Z,70.27
2018-11-23T06:32:14.414Z,82.13
2018-11-23T06:34:42.644Z,76.07
2018-11-23T06:37:10.810Z,74.97
2018-11-23T06:39:39.044Z,74.23
2018-11-23T06:42:07.245Z,66.30
2018-11-23T06:44:35.492Z,70.27
2018-11-23T06:47:04.101Z,65.73
2018-11-23T06:49:36.717Z,64.63
2018-11-23T06:52:04.956Z,63.37
2018-11-23T06:54:33.152Z,64.33
2018-11-23T06:57:01.403Z,61.20
2018-11-23T06:59:29.711Z,59.40
2018-11-23T07:01:57.861Z,67.53
2018-11-23T07:04:26.103Z,61.17
2018-11-23T07:06:54.360Z,63.13
2018-11-23T07:09:22.633Z,62.07
2018-11-23T07:11:51.038Z,65.43
2018-11-23T07:14:19.241Z,55.30
2018-11-23T07:16:47.456Z,54.17
2018-11-23T07:19:15.751Z,53.57
2018-11-23T07:21:43.992Z,51.70
2018-11-23T07:24:12.235Z,53.20
2018-11-23T07:26:40.435Z,55.70
2018-11-23T07:29:08.700Z,51.97
2018-11-23T07:31:37.025Z,57.23
2018-11-23T07:34:05.275Z,52.97
2018-11-23T07:36:33.490Z,45.70
2018-11-23T07:39:01.667Z,53.83
2018-11-23T07:41:35.225Z,53.83
2018-11-23T07:44:03.403Z,55.73
2018-11-23T07:46:31.662Z,51.30
2018-11-23T07:48:59.814Z,49.83
2018-11-23T07:51:27.999Z,53.57
2018-11-23T07:53:57.082Z,53.13
2018-11-23T07:56:25.328Z,50.83
2018-11-23T07:58:53.569Z,55.47
2018-11-23T08:01:21.754Z,53.00
2018-11-23T08:03:50.062Z,53.30
2018-11-23T08:06:18.298Z,54.53
2018-11-23T08:08:46.517Z,61.57
2018-11-23T08:11:15.843Z,54.70
2018-11-23T08:13:44.109Z,56.83
2018-11-23T08:16:12.284Z,53.97
2018-11-23T08:18:40.511Z,52.87
2018-11-23T08:21:08.710Z,51.60
2018-11-23T08:23:36.935Z,54.77
2018-11-23T08:26:05.158Z,53.30
2018-11-23T08:28:33.393Z,52.50
2018-11-23T08:31:01.615Z,49.43
2018-11-23T08:33:29.864Z,52.63
2018-11-23T08:35:58.135Z,52.90
2018-11-23T08:38:26.428Z,51.03
2018-11-23T08:40:54.620Z,52.80
2018-11-23T08:43:23.009Z,53.77
2018-11-23T08:45:51.271Z,56.03
2018-11-23T08:48:19.522Z,54.03
2018-11-23T08:50:47.752Z,55.50
2018-11-23T08:53:15.959Z,55.60
2018-11-23T08:55:44.157Z,55.53
2018-11-23T08:58:12.411Z,49.77
2018-11-23T09:00:40.817Z,52.27
2018-11-23T09:03:09.124Z,49.90
2018-11-23T09:05:37.373Z,47.37
2018-11-23T09:08:05.725Z,54.40
2018-11-23T09:10:34.022Z,46.80
2018-11-23T09:13:02.928Z,48.73
2018-11-23T09:15:31.153Z,51.70
2018-11-23T09:17:59.457Z,53.90
2018-11-23T09:20:27.680Z,55.73
2018-11-23T09:22:55.881Z,48.53
2018-11-23T09:25:24.447Z,50.30
2018-11-23T09:27:52.710Z,48.00
2018-11-23T09:30:25.427Z,48.83
2018-11-23T09:32:54.306Z,47.27
2018-11-23T09:35:22.819Z,49.77
2018-11-23T09:37:51.347Z,47.80
2018-11-23T09:40:22.926Z,46.83
2018-11-23T09:42:51.661Z,51.13
2018-11-23T09:45:21.284Z,45.40
2018-11-23T09:47:50.618Z,49.57
2018-11-23T09:50:20.226Z,48.73
2018-11-23T09:52:50.146Z,49.30
2018-11-23T09:55:18.610Z,49.80
2018-11-23T09:57:46.883Z,44.30
2018-11-23T10:00:17.888Z,44.93
2018-11-23T10:02:47.115Z,50.93
2018-11-23T10:05:16.077Z,49.90
2018-11-23T10:07:45.615Z,47.30
2018-11-23T10:10:14.752Z,49.20
2018-11-23T10:12:43.284Z,44.00
2018-11-23T10:15:12.563Z,44.13
2018-11-23T10:17:40.941Z,45.60
2018-11-23T10:20:11.410Z,46.60
2018-11-23T10:22:39.695Z,46.83
2018-11-23T10:25:09.080Z,47.77
2018-11-23T10:27:37.624Z,47.30
2018-11-23T10:30:06.475Z,46.10
2018-11-23T10:32:34.864Z,46.23
2018-11-23T10:35:03.262Z,44.07
2018-11-23T10:37:31.583Z,50.60
2018-11-23T10:39:59.949Z,49.50
2018-11-23T10:42:28.632Z,46.77
2018-11-23T10:44:56.931Z,46.47
2018-11-23T10:47:25.177Z,48.03
2018-11-23T10:49:53.597Z,48.70
2018-11-23T10:52:21.781Z,42.33
2018-11-23T10:54:50.073Z,47.03
2018-11-23T10:57:18.926Z,48.07
2018-11-23T10:59:47.212Z,47.87
2018-11-23T11:02:20.644Z,49.83
2018-11-23T11:04:52.097Z,48.87
2018-11-23T11:07:23.357Z,46.37
2018-11-23T11:09:51.767Z,42.73
2018-11-23T11:12:20.240Z,45.13
2018-11-23T11:14:48.497Z,43.30
2018-11-23T11:17:16.693Z,45.10
2018-11-23T11:19:44.899Z,39.83
2018-11-23T11:22:13.188Z,43.10
2018-11-23T11:24:41.419Z,45.90
2018-11-23T11:27:10.029Z,41.77
2018-11-23T11:29:38.409Z,45.00
2018-11-23T11:32:06.712Z,46.73
2018-11-23T11:34:34.979Z,40.87
2018-11-23T11:37:03.161Z,44.57
2018-11-23T11:39:31.472Z,45.00
2018-11-23T11:41:59.701Z,42.13
2018-11-23T11:44:28.000Z,45.37
2018-11-23T11:46:56.167Z,40.20
2018-11-23T11:49:24.446Z,42.87
2018-11-23T11:51:52.703Z,43.17
2018-11-23T11:54:20.943Z,48.20
2018-11-23T11:56:49.205Z,38.60
2018-11-23T11:59:18.103Z,45.07
2018-11-23T12:01:46.425Z,42.83
2018-11-23T12:04:14.739Z,43.53
2018-11-23T12:06:43.057Z,49.37
2018-11-23T12:09:12.085Z,45.77
2018-11-23T12:11:40.766Z,46.73
2018-11-23T12:14:09.082Z,43.30
2018-11-23T12:16:37.439Z,64.37
2018-11-23T12:19:08.129Z,58.23
2018-11-23T12:21:34.772Z,58.63
2018-11-23T12:24:03.089Z,59.40
2018-11-23T12:26:31.411Z,58.97
2018-11-23T12:28:59.664Z,64.40
2018-11-23T12:31:28.207Z,53.33
2018-11-23T12:33:56.481Z,56.40
2018-11-23T12:36:24.923Z,63.13
2018-11-23T12:38:53.292Z,58.57
2018-11-23T12:41:21.546Z,62.83
2018-11-23T12:43:49.934Z,65.37
2018-11-23T12:46:18.463Z,65.33
2018-11-23T12:48:46.744Z,58.10
2018-11-23T12:51:15.006Z,63.13
2018-11-23T12:53:43.573Z,55.50
2018-11-23T12:56:11.979Z,68.13
2018-11-23T12:58:40.357Z,59.27
2018-11-23T13:01:08.621Z,63.20
2018-11-23T13:03:37.050Z,62.47
2018-11-23T13:06:05.352Z,65.83
2018-11-23T13:08:33.709Z,63.10
2018-11-23T13:11:01.997Z,61.80
2018-11-23T13:13:30.259Z,65.13
2018-11-23T13:15:58.498Z,60.30
2018-11-23T13:18:26.710Z,55.80
2018-11-23T13:20:55.175Z,61.07
2018-11-23T13:23:23.400Z,63.90
2018-11-23T13:25:51.756Z,61.57
2018-11-23T13:28:20.159Z,57.37
2018-11-23T13:30:48.572Z,60.70
2018-11-23T13:33:16.731Z,57.60
2018-11-23T13:35:45.100Z,54.23
2018-11-23T13:38:13.438Z,65.20
2018-11-23T13:40:41.754Z,57.53
2018-11-23T13:43:10.023Z,60.33
2018-11-23T13:45:38.278Z,54.70
2018-11-23T13:48:06.590Z,57.70
2018-11-23T13:50:35.034Z,53.43
2018-11-23T13:53:03.232Z,53.33
2018-11-23T13:55:31.602Z,52.17
2018-11-23T13:57:59.865Z,50.70
2018-11-23T14:00:29.201Z,49.03
2018-11-23T14:02:57.545Z,53.23
2018-11-23T14:05:28.235Z,58.47
2018-11-23T14:07:58.117Z,55.80
2018-11-23T14:10:27.108Z,51.43
2018-11-23T14:12:55.398Z,52.90
2018-11-23T14:15:24.873Z,53.47
2018-11-23T14:17:54.231Z,58.83
2018-11-23T14:20:23.431Z,57.27
2018-11-23T14:22:51.798Z,51.07
2018-11-23T14:25:22.313Z,49.93
2018-11-23T14:27:51.138Z,48.87
2018-11-23T14:30:21.185Z,47.67
2018-11-23T14:32:49.759Z,47.33
2018-11-23T14:35:20.484Z,53.73
2018-11-23T14:37:49.413Z,47.07
2018-11-23T14:40:17.938Z,44.87
2018-11-23T14:42:47.132Z,43.23
2018-11-23T14:45:31.065Z,47.37
2018-11-23T14:48:00.059Z,43.27
2018-11-23T14:50:33.839Z,46.93
2018-11-23T14:53:03.800Z,48.47
2018-11-23T14:55:35.928Z,45.77
2018-11-23T14:58:04.209Z,46.83
2018-11-23T15:00:33.908Z,45.20
2018-11-23T15:03:03.047Z,48.63
2018-11-23T15:05:31.413Z,45.40
2018-11-23T15:07:59.679Z,42.40
2018-11-23T15:10:29.094Z,49.40
2018-11-23T15:12:58.834Z,41.37
2018-11-23T15:15:28.571Z,47.50
2018-11-23T15:17:57.677Z,45.87
2018-11-23T15:20:26.968Z,50.23
2018-11-23T15:22:56.238Z,53.30
2018-11-23T15:25:24.577Z,47.63
2018-11-23T15:27:52.867Z,52.33
2018-11-23T15:30:22.746Z,46.43
2018-11-23T15:32:50.947Z,40.90
2018-11-23T15:35:19.164Z,44.50
2018-11-23T15:37:47.718Z,42.90
2018-11-23T15:40:17.555Z,45.03
2018-11-23T15:42:46.487Z,44.57
2018-11-23T15:45:16.211Z,45.17
2018-11-23T15:47:44.597Z,46.33
2018-11-23T15:50:14.912Z,45.57
2018-11-23T15:52:43.493Z,43.90
2018-11-23T15:55:13.923Z,45.73
2018-11-23T15:57:43.240Z,46.80
2018-11-23T16:00:18.490Z,51.80
2018-11-23T16:02:48.104Z,51.23
2018-11-23T16:05:16.477Z,42.83
2018-11-23T16:07:45.094Z,43.03
2018-11-23T16:10:19.037Z,53.77
2018-11-23T16:12:49.461Z,53.07
2018-11-23T16:15:18.475Z,44.20
2018-11-23T16:17:47.170Z,48.90
2018-11-23T16:20:16.689Z,45.97
2018-11-23T16:22:46.693Z,46.80
2018-11-23T16:25:15.149Z,45.23
2018-11-23T16:27:45.067Z,46.97
2018-11-23T16:30:19.262Z,46.23
2018-11-23T16:32:48.858Z,45.30
2018-11-23T16:35:22.542Z,46.00
2018-11-23T16:37:51.486Z,41.17
2018-11-23T16:40:23.244Z,41.53
2018-11-23T16:42:52.411Z,45.13
2018-11-23T16:45:23.277Z,42.93
2018-11-23T16:47:52.262Z,47.30
2018-11-23T16:50:20.651Z,41.03
2018-11-23T16:52:49.569Z,45.47
2018-11-23T16:55:19.178Z,49.10
2018-11-23T16:57:49.050Z,45.23
2018-11-23T17:00:19.137Z,44.00
2018-11-23T17:02:47.508Z,43.90
2018-11-23T17:05:17.063Z,45.30
2018-11-23T17:07:45.659Z,42.00
2018-11-23T17:10:15.344Z,44.13
2018-11-23T17:12:51.078Z,43.00
2018-11-23T17:15:23.570Z,45.10
2018-11-23T17:17:58.899Z,43.83
2018-11-23T17:44:00.996Z,43.37
2018-11-23T17:51:35.910Z,41.70
2018-11-23T17:57:04.507Z,38.63
2018-11-23T17:59:54.090Z,35.47
2018-11-23T18:02:26.190Z,33.23
2018-11-23T18:05:17.923Z,35.63
2018-11-23T18:11:27.178Z,39.03
2018-11-23T18:29:09.617Z,33.40
2018-11-23T18:31:38.151Z,35.07
2018-11-23T18:34:06.792Z,37.43
2018-11-23T18:45:27.887Z,40.58
2018-11-23T18:48:02.230Z,40.93
2018-11-23T18:50:33.407Z,40.93
2018-11-23T18:53:08.889Z,40.90
2018-11-23T18:56:34.199Z,41.07
2018-11-23T18:59:10.050Z,35.83
2018-11-23T19:01:46.645Z,36.57
2018-11-23T22:09:01.302Z,65.42
2018-11-23T22:11:30.846Z,71.90
2018-11-23T22:13:59.670Z,69.90
2018-11-23T22:16:28.697Z,70.87
2018-11-23T22:18:57.760Z,67.03
2018-11-23T22:21:27.028Z,69.87
2018-11-23T22:24:01.756Z,74.87
2018-11-23T22:26:28.535Z,78.43
2018-11-23T22:28:58.044Z,81.30
2018-11-23T23:05:36.653Z,65.60
2018-11-23T23:08:05.383Z,71.20
2018-11-23T23:10:33.758Z,74.50
2018-11-23T23:13:02.034Z,74.50
2018-11-23T23:15:30.164Z,79.03
2018-11-23T23:17:58.303Z,78.73
2018-11-23T23:20:26.434Z,69.50
2018-11-23T23:22:54.528Z,73.43
2018-11-23T23:25:22.655Z,71.77
2018-11-23T23:27:50.797Z,72.00
2018-11-23T23:30:18.964Z,78.13
2018-11-23T23:32:47.484Z,76.03
2018-11-23T23:35:16.110Z,79.83
2018-11-23T23:37:44.206Z,75.00
2018-11-23T23:40:13.081Z,64.97
2018-11-23T23:42:41.223Z,63.67
2018-11-23T23:45:09.936Z,69.47
2018-11-23T23:47:38.097Z,74.43
2018-11-23T23:50:07.571Z,70.40
2018-11-23T23:52:35.741Z,64.53
2018-11-23T23:55:03.923Z,63.97
2018-11-23T23:57:32.039Z,67.57
